createdAt,value
2023-04-16T00:01:51.567Z,42.30
2023-04-16T00:04:18.514Z,35.30
2023-04-16T00:06:45.281Z,35.30
2023-04-16T00:09:12.059Z,31.70
2023-04-16T00:11:38.827Z,31.90
2023-04-16T00:14:05.789Z,29.70
2023-04-16T00:16:32.822Z,31.40
2023-04-16T00:18:59.530Z,34.40
2023-04-16T00:21:26.718Z,33.80
2023-04-16T00:23:53.705Z,34.20
2023-04-16T00:26:20.658Z,30.20
2023-04-16T00:28:47.858Z,28.00
2023-04-16T00:31:14.866Z,29.60
2023-04-16T00:33:41.736Z,28.50
2023-04-16T00:36:09.661Z,30.10
2023-04-16T00:38:37.349Z,32.10
2023-04-16T00:41:04.111Z,32.40
2023-04-16T00:43:31.757Z,32.30
2023-04-16T00:45:59.058Z,35.20
2023-04-16T00:48:28.298Z,29.80
2023-04-16T00:50:55.979Z,25.70
2023-04-16T00:53:23.529Z,26.60
2023-04-16T00:55:51.025Z,28.80
2023-04-16T00:58:18.360Z,29.30
2023-04-16T01:00:45.495Z,33.40
2023-04-16T01:03:12.533Z,31.80
2023-04-16T01:05:39.572Z,29.40
2023-04-16T01:08:06.629Z,30.00
2023-04-16T01:10:33.356Z,26.20
2023-04-16T01:13:00.525Z,28.50
2023-04-16T01:15:27.418Z,28.60
2023-04-16T01:17:56.932Z,25.50
2023-04-16T01:20:23.668Z,26.50
2023-04-16T01:22:50.439Z,30.00
2023-04-16T01:25:17.220Z,27.70
2023-04-16T01:27:44.597Z,27.50
2023-04-16T01:30:11.754Z,28.30
2023-04-16T01:32:48.049Z,24.00
2023-04-16T01:35:15.109Z,26.10
2023-04-16T01:37:41.850Z,27.80
2023-04-16T01:40:11.173Z,29.30
2023-04-16T01:42:38.625Z,32.80
2023-04-16T01:45:06.269Z,31.90
2023-04-16T01:47:33.089Z,33.80
2023-04-16T01:50:00.963Z,43.60
2023-04-16T01:52:27.725Z,34.50
2023-04-16T01:54:54.500Z,40.30
2023-04-16T01:57:21.258Z,44.00
2023-04-16T01:59:48.097Z,49.40
2023-04-16T02:02:16.677Z,56.50
2023-04-16T02:04:45.943Z,43.10
2023-04-16T02:07:12.905Z,37.40
2023-04-16T02:09:41.012Z,34.50
2023-04-16T02:12:11.464Z,37.20
2023-04-16T02:14:38.353Z,35.70
2023-04-16T02:17:05.132Z,34.60
2023-04-16T02:19:38.424Z,32.20
2023-04-16T02:22:05.575Z,39.20
2023-04-16T02:24:32.381Z,43.40
2023-04-16T02:26:59.796Z,45.80
2023-04-16T02:29:26.672Z,35.80
2023-04-16T02:31:59.764Z,38.50
2023-04-16T02:34:27.666Z,33.60
2023-04-16T02:36:55.084Z,35.70
2023-04-16T02:39:22.224Z,42.10
2023-04-16T02:41:48.995Z,38.50
2023-04-16T02:44:20.171Z,41.50
2023-04-16T02:46:47.440Z,45.10
2023-04-16T02:49:14.466Z,36.60
2023-04-16T02:51:41.272Z,44.50
2023-04-16T02:54:08.040Z,74.10
2023-04-16T02:56:35.066Z,57.00
2023-04-16T02:59:01.818Z,56.70
2023-04-16T03:01:29.132Z,42.20
2023-04-16T03:03:56.462Z,41.10
2023-04-16T03:06:23.384Z,43.10
2023-04-16T03:08:51.204Z,45.80
2023-04-16T03:11:18.070Z,43.60
2023-04-16T03:13:45.017Z,43.90
2023-04-16T03:16:11.785Z,52.10
2023-04-16T03:18:38.880Z,49.00
2023-04-16T03:21:06.408Z,53.50
2023-04-16T03:23:33.606Z,52.10
2023-04-16T03:26:00.344Z,46.70
2023-04-16T03:28:27.469Z,48.60
2023-04-16T03:30:54.459Z,60.20
2023-04-16T03:33:22.871Z,49.30
2023-04-16T03:35:58.559Z,47.30
2023-04-16T03:38:27.233Z,48.40
2023-04-16T03:40:55.727Z,45.50
2023-04-16T03:43:22.598Z,52.90
2023-04-16T03:45:49.969Z,41.60
2023-04-16T03:48:20.327Z,47.00
2023-04-16T03:50:48.560Z,50.20
2023-04-16T03:53:16.769Z,52.70
2023-04-16T03:55:43.900Z,52.50
2023-04-16T03:58:10.893Z,52.20
2023-04-16T04:00:37.734Z,54.80
2023-04-16T04:03:09.482Z,39.90
2023-04-16T04:05:39.404Z,43.90
2023-04-16T04:08:07.129Z,45.50
2023-04-16T04:10:35.267Z,50.80
2023-04-16T04:13:05.021Z,50.80
2023-04-16T04:15:32.773Z,49.60
2023-04-16T04:18:00.315Z,48.90
2023-04-16T04:20:28.133Z,46.70
2023-04-16T04:22:54.990Z,47.60
2023-04-16T04:25:23.899Z,48.40
2023-04-16T04:27:50.900Z,54.10
2023-04-16T04:30:17.816Z,52.00
2023-04-16T04:32:44.593Z,56.80
2023-04-16T04:35:11.477Z,83.90
2023-04-16T04:37:38.317Z,62.00
2023-04-16T04:40:12.338Z,143.40
2023-04-16T04:42:39.231Z,147.90
2023-04-16T04:45:06.620Z,71.90
2023-04-16T04:47:34.003Z,55.60
2023-04-16T04:50:00.745Z,50.50
2023-04-16T04:52:28.206Z,40.50
2023-04-16T04:54:55.036Z,51.90
2023-04-16T04:57:21.896Z,45.90
2023-04-16T04:59:51.084Z,44.90
2023-04-16T05:02:17.969Z,42.90
2023-04-16T05:04:44.884Z,41.00
2023-04-16T05:07:11.636Z,37.80
2023-04-16T05:09:38.410Z,39.60
2023-04-16T05:12:05.502Z,39.70
2023-04-16T05:14:32.178Z,39.30
2023-04-16T05:16:58.970Z,38.00
2023-04-16T05:19:25.776Z,38.00
2023-04-16T05:21:52.538Z,33.80
2023-04-16T05:24:20.338Z,26.60
2023-04-16T05:26:47.045Z,30.10
2023-04-16T05:29:13.943Z,33.10
2023-04-16T05:31:42.231Z,37.00
2023-04-16T05:34:11.611Z,33.30
2023-04-16T05:36:38.530Z,29.20
2023-04-16T05:39:05.315Z,33.60
2023-04-16T05:41:32.116Z,36.70
2023-04-16T05:43:58.860Z,45.60
2023-04-16T05:46:26.658Z,33.10
2023-04-16T05:48:53.365Z,38.20
2023-04-16T05:51:23.019Z,36.50
2023-04-16T05:53:49.993Z,37.40
2023-04-16T05:56:16.795Z,36.90
2023-04-16T05:58:43.477Z,45.50
2023-04-16T06:01:11.543Z,46.50
2023-04-16T06:03:38.449Z,47.60
2023-04-16T06:06:05.544Z,54.00
2023-04-16T06:08:32.356Z,55.40
2023-04-16T06:10:59.131Z,53.60
2023-04-16T06:13:25.896Z,53.80
2023-04-16T06:15:53.785Z,57.70
2023-04-16T06:18:20.532Z,63.00
2023-04-16T06:20:47.648Z,55.70
2023-04-16T06:23:14.476Z,59.70
2023-04-16T06:25:41.596Z,54.40
2023-04-16T06:28:08.301Z,55.90
2023-04-16T06:30:35.084Z,65.70
2023-04-16T06:33:02.103Z,71.30
2023-04-16T06:35:28.886Z,66.00
2023-04-16T06:37:55.613Z,75.90
2023-04-16T06:40:22.694Z,81.10
2023-04-16T06:42:49.518Z,72.40
2023-04-16T06:45:17.493Z,74.10
2023-04-16T06:47:44.515Z,60.40
2023-04-16T06:50:11.519Z,64.50
2023-04-16T06:52:38.478Z,55.00
2023-04-16T06:55:07.274Z,56.60
2023-04-16T06:57:36.209Z,61.90
2023-04-16T07:00:05.319Z,57.70
2023-04-16T07:02:32.260Z,57.60
2023-04-16T07:04:59.274Z,56.90
2023-04-16T07:07:25.972Z,48.40
2023-04-16T07:09:52.727Z,41.20
2023-04-16T07:12:22.484Z,46.80
2023-04-16T07:14:49.796Z,39.50
2023-04-16T07:17:16.599Z,36.90
2023-04-16T07:19:58.993Z,37.60
2023-04-16T07:22:25.992Z,39.90
2023-04-16T07:24:52.737Z,37.20
2023-04-16T07:27:19.492Z,39.20
2023-04-16T07:29:46.625Z,36.10
2023-04-16T07:32:14.821Z,39.00
2023-04-16T07:34:42.588Z,38.50
2023-04-16T07:37:09.435Z,35.50
2023-04-16T07:39:36.190Z,28.10
2023-04-16T07:42:02.974Z,26.10
2023-04-16T07:44:29.926Z,32.60
2023-04-16T07:46:56.755Z,27.30
2023-04-16T07:49:23.610Z,27.50
2023-04-16T07:51:50.537Z,29.10
2023-04-16T07:54:17.758Z,30.00
2023-04-16T07:56:44.512Z,27.90
2023-04-16T07:59:21.796Z,25.60
2023-04-16T08:01:50.393Z,24.60
2023-04-16T08:04:23.232Z,21.70
2023-04-16T08:06:51.649Z,19.20
2023-04-16T08:09:20.255Z,20.90
2023-04-16T08:11:49.317Z,21.00
2023-04-16T08:14:17.034Z,23.60
2023-04-16T08:16:44.012Z,22.50
2023-04-16T08:19:10.954Z,20.60
2023-04-16T08:21:38.043Z,20.50
2023-04-16T08:24:04.798Z,18.00
2023-04-16T08:26:31.622Z,17.10
2023-04-16T08:28:58.385Z,17.00
2023-04-16T08:31:25.222Z,18.20
2023-04-16T08:33:51.905Z,16.80
2023-04-16T08:36:18.902Z,17.40
2023-04-16T08:38:45.675Z,15.50
2023-04-16T08:41:13.564Z,17.70
2023-04-16T08:43:46.956Z,16.90
2023-04-16T08:46:17.449Z,14.40
2023-04-16T08:48:48.858Z,14.80
2023-04-16T08:51:18.200Z,13.80
2023-04-16T08:53:53.981Z,14.20
2023-04-16T08:56:23.739Z,15.70
2023-04-16T08:58:53.885Z,14.50
2023-04-16T09:01:22.269Z,12.50
2023-04-16T09:03:49.432Z,12.10
2023-04-16T09:06:16.981Z,11.80
2023-04-16T09:08:46.408Z,10.50
2023-04-16T09:11:17.551Z,10.30
2023-04-16T09:13:46.244Z,9.20
2023-04-16T09:16:14.277Z,7.80
2023-04-16T09:18:42.057Z,8.80
2023-04-16T09:21:11.187Z,8.90
2023-04-16T09:23:39.055Z,9.70
2023-04-16T09:26:06.197Z,7.50
2023-04-16T09:28:41.045Z,7.40
2023-04-16T09:31:09.823Z,8.00
2023-04-16T09:33:36.701Z,7.20
2023-04-16T09:36:03.660Z,8.40
2023-04-16T09:38:47.066Z,7.90
2023-04-16T09:41:16.992Z,7.10
2023-04-16T09:44:00.009Z,8.10
2023-04-16T09:46:31.946Z,7.30
2023-04-16T09:48:58.827Z,5.60
2023-04-16T09:51:27.050Z,5.10
2023-04-16T09:53:54.903Z,5.60
2023-04-16T09:56:26.029Z,6.00
2023-04-16T09:58:58.230Z,5.90
2023-04-16T10:01:25.660Z,4.50
2023-04-16T10:03:54.951Z,3.40
2023-04-16T10:06:23.678Z,3.50
2023-04-16T10:08:52.723Z,4.00
2023-04-16T10:11:21.329Z,5.90
2023-04-16T10:13:48.822Z,4.20
2023-04-16T10:16:16.062Z,5.90
2023-04-16T10:18:44.824Z,5.10
2023-04-16T10:21:12.848Z,5.40
2023-04-16T10:23:40.379Z,5.70
2023-04-16T10:26:07.476Z,6.80
2023-04-16T10:28:35.713Z,6.20
2023-04-16T10:31:04.494Z,8.30
2023-04-16T10:33:34.555Z,6.90
2023-04-16T10:36:10.059Z,6.70
2023-04-16T10:38:41.886Z,6.30
2023-04-16T10:41:09.732Z,6.90
2023-04-16T10:43:41.848Z,5.90
2023-04-16T10:46:27.024Z,6.50
2023-04-16T10:48:54.911Z,7.50
2023-04-16T10:51:28.202Z,7.20
2023-04-16T10:54:02.598Z,7.40
2023-04-16T10:56:33.274Z,7.20
2023-04-16T10:58:59.992Z,7.00
2023-04-16T11:01:31.525Z,8.90
2023-04-16T11:04:00.950Z,12.40
2023-04-16T11:06:28.781Z,9.30
2023-04-16T11:08:55.911Z,9.20
2023-04-16T11:11:23.545Z,6.70
2023-04-16T11:13:56.465Z,7.30
2023-04-16T11:16:26.069Z,6.90
2023-04-16T11:18:55.010Z,6.00
2023-04-16T11:21:24.059Z,6.80
2023-04-16T11:23:52.720Z,6.30
2023-04-16T11:26:26.080Z,6.70
2023-04-16T11:28:54.364Z,6.30
2023-04-16T11:31:21.530Z,6.90
2023-04-16T11:33:48.862Z,6.00
2023-04-16T11:36:15.751Z,5.50
2023-04-16T11:38:43.032Z,6.80
2023-04-16T11:41:11.125Z,7.50
2023-04-16T11:43:38.119Z,4.60
2023-04-16T11:46:20.075Z,5.20
2023-04-16T11:48:53.876Z,5.30
2023-04-16T11:51:23.644Z,4.50
2023-04-16T11:53:53.811Z,4.90
2023-04-16T11:56:29.574Z,4.60
2023-04-16T11:59:13.149Z,4.30
2023-04-16T12:01:42.206Z,5.00
2023-04-16T12:04:09.632Z,6.30
2023-04-16T12:06:36.833Z,5.50
2023-04-16T12:09:24.550Z,5.30
2023-04-16T12:11:51.663Z,5.00
2023-04-16T12:14:18.628Z,5.20
2023-04-16T12:16:45.684Z,4.40
2023-04-16T12:19:13.138Z,6.20
2023-04-16T12:21:42.531Z,6.60
2023-04-16T12:24:13.488Z,6.80
2023-04-16T12:26:44.018Z,4.70
2023-04-16T12:29:28.001Z,4.90
2023-04-16T12:31:54.817Z,5.00
2023-04-16T12:34:28.956Z,5.00
2023-04-16T12:37:10.981Z,4.90
2023-04-16T12:39:37.757Z,5.00
2023-04-16T12:42:06.408Z,6.80
2023-04-16T12:44:33.163Z,4.60
2023-04-16T12:46:59.954Z,5.70
2023-04-16T12:49:26.702Z,4.70
2023-04-16T12:51:53.466Z,5.70
2023-04-16T12:54:20.257Z,5.50
2023-04-16T12:56:47.083Z,5.20
2023-04-16T12:59:13.804Z,4.60
2023-04-16T13:01:40.658Z,6.10
2023-04-16T13:04:07.776Z,5.00
2023-04-16T13:06:36.792Z,7.10
2023-04-16T13:09:04.756Z,5.00
2023-04-16T13:11:32.437Z,4.60
2023-04-16T13:13:59.435Z,5.30
2023-04-16T13:16:26.432Z,6.60
2023-04-16T13:18:53.350Z,4.10
2023-04-16T13:21:20.091Z,4.70
2023-04-16T13:23:46.859Z,4.20
2023-04-16T13:26:15.548Z,4.20
2023-04-16T13:28:42.273Z,4.20
2023-04-16T13:31:09.435Z,5.40
2023-04-16T13:33:36.378Z,4.70
2023-04-16T13:36:03.217Z,5.10
2023-04-16T13:38:29.911Z,4.50
2023-04-16T13:40:56.623Z,5.60
2023-04-16T13:43:23.438Z,5.10
2023-04-16T13:45:50.415Z,4.80
2023-04-16T13:48:18.027Z,5.00
2023-04-16T13:50:44.805Z,4.90
2023-04-16T13:53:11.569Z,4.80
2023-04-16T13:55:38.500Z,5.00
2023-04-16T13:58:07.239Z,4.80
2023-04-16T14:00:34.228Z,5.00
2023-04-16T14:03:01.217Z,4.80
2023-04-16T14:05:28.108Z,6.10
2023-04-16T14:07:54.839Z,6.30
2023-04-16T14:10:21.633Z,4.40
2023-04-16T14:12:48.586Z,4.80
2023-04-16T14:15:15.386Z,4.00
2023-04-16T14:17:43.408Z,5.10
2023-04-16T14:20:12.718Z,3.90
2023-04-16T14:22:39.952Z,8.10
2023-04-16T14:25:07.315Z,4.20
2023-04-16T14:27:34.363Z,4.80
2023-04-16T14:30:01.555Z,5.20
2023-04-16T14:32:28.393Z,4.90
2023-04-16T14:34:55.146Z,4.90
2023-04-16T14:37:22.038Z,4.20
2023-04-16T14:39:50.523Z,5.30
2023-04-16T14:42:17.427Z,4.80
2023-04-16T14:44:44.226Z,5.50
2023-04-16T14:47:11.328Z,4.60
2023-04-16T14:49:38.132Z,4.50
2023-04-16T14:52:05.880Z,5.20
2023-04-16T14:54:33.805Z,5.00
2023-04-16T14:57:02.127Z,8.00
2023-04-16T14:59:28.917Z,9.70
2023-04-16T15:01:57.006Z,8.40
2023-04-16T15:04:24.732Z,11.60
2023-04-16T15:06:51.741Z,14.00
2023-04-16T15:09:18.545Z,19.20
2023-04-16T15:11:45.855Z,15.40
2023-04-16T15:14:12.904Z,13.60
2023-04-16T15:16:40.017Z,9.40
2023-04-16T15:19:07.098Z,12.20
2023-04-16T15:21:33.874Z,14.20
2023-04-16T15:24:00.631Z,13.30
2023-04-16T15:26:27.661Z,12.10
2023-04-16T15:28:54.434Z,9.50
2023-04-16T15:31:21.301Z,9.70
2023-04-16T15:33:48.852Z,11.00
2023-04-16T15:36:16.128Z,10.60
2023-04-16T15:38:42.961Z,8.40
2023-04-16T15:41:10.607Z,7.80
2023-04-16T15:43:37.411Z,9.10
2023-04-16T15:46:04.668Z,10.10
2023-04-16T15:48:31.447Z,9.40
2023-04-16T15:50:58.237Z,10.70
2023-04-16T15:53:40.782Z,11.30
2023-04-16T15:56:07.590Z,13.20
2023-04-16T15:58:34.409Z,18.20
2023-04-16T16:01:02.597Z,13.00
2023-04-16T16:03:29.893Z,11.20
2023-04-16T16:05:59.247Z,26.20
2023-04-16T16:08:26.457Z,13.30
2023-04-16T16:10:53.280Z,9.00
2023-04-16T16:13:19.996Z,8.80
2023-04-16T16:15:46.759Z,11.50
2023-04-16T16:18:13.566Z,18.90
2023-04-16T16:20:40.735Z,20.00
2023-04-16T16:23:07.846Z,17.40
2023-04-16T16:25:34.640Z,12.30
2023-04-16T16:28:02.217Z,16.50
2023-04-16T16:30:30.669Z,20.90
2023-04-16T16:32:57.939Z,26.10
2023-04-16T16:35:26.209Z,21.00
2023-04-16T16:37:55.823Z,11.10
2023-04-16T16:40:23.288Z,16.60
2023-04-16T16:42:52.180Z,14.10
2023-04-16T16:45:19.407Z,10.50
2023-04-16T16:47:46.830Z,8.40
2023-04-16T16:50:13.760Z,11.00
2023-04-16T16:52:40.578Z,10.10
2023-04-16T16:55:11.058Z,12.80
2023-04-16T16:57:39.003Z,20.60
2023-04-16T17:00:11.525Z,31.00
2023-04-16T17:02:38.964Z,14.10
2023-04-16T17:05:07.626Z,9.90
2023-04-16T17:07:34.367Z,9.50
2023-04-16T17:10:03.642Z,10.80
2023-04-16T17:12:32.210Z,9.70
2023-04-16T17:14:59.018Z,11.20
2023-04-16T17:17:27.013Z,11.40
2023-04-16T17:19:54.166Z,10.10
2023-04-16T17:22:21.736Z,12.30
2023-04-16T17:24:48.461Z,12.00
2023-04-16T17:27:15.149Z,12.80
2023-04-16T17:29:41.884Z,10.90
2023-04-16T17:32:08.660Z,11.50
2023-04-16T17:34:35.498Z,13.70
2023-04-16T17:37:02.282Z,10.00
2023-04-16T17:39:29.573Z,13.70
2023-04-16T17:41:58.605Z,12.70
2023-04-16T17:44:27.495Z,12.80
2023-04-16T17:46:54.319Z,13.60
2023-04-16T17:49:21.286Z,15.70
2023-04-16T17:51:48.953Z,14.70
2023-04-16T17:54:15.846Z,15.50
2023-04-16T17:56:42.687Z,13.10
2023-04-16T17:59:09.492Z,15.30
2023-04-16T18:01:36.223Z,14.60
2023-04-16T18:04:03.177Z,17.50
2023-04-16T18:06:31.016Z,17.80
2023-04-16T18:08:58.379Z,17.90
2023-04-16T18:11:25.060Z,17.20
2023-04-16T18:13:53.862Z,17.80
2023-04-16T18:16:20.787Z,13.80
2023-04-16T18:18:47.993Z,13.80
2023-04-16T18:21:14.806Z,13.00
2023-04-16T18:23:41.660Z,13.30
2023-04-16T18:26:09.464Z,19.30
2023-04-16T18:28:38.038Z,14.70
2023-04-16T18:31:06.847Z,15.50
2023-04-16T18:33:54.219Z,15.90
2023-04-16T18:36:21.130Z,18.10
2023-04-16T18:39:00.301Z,17.00
2023-04-16T18:41:28.393Z,18.00
2023-04-16T18:43:55.620Z,15.00
2023-04-16T18:46:22.717Z,15.50
2023-04-16T18:48:49.823Z,16.30
2023-04-16T18:51:16.910Z,20.10
2023-04-16T18:53:45.764Z,17.20
2023-04-16T18:56:12.852Z,16.30
2023-04-16T18:58:39.774Z,15.50
2023-04-16T19:01:11.010Z,17.10
2023-04-16T19:03:38.641Z,16.60
2023-04-16T19:06:06.406Z,16.90
2023-04-16T19:08:48.696Z,15.70
2023-04-16T19:11:15.701Z,17.90
2023-04-16T19:13:44.569Z,20.10
2023-04-16T19:16:13.346Z,21.60
2023-04-16T19:18:40.258Z,18.70
2023-04-16T19:21:07.286Z,15.80
2023-04-16T19:23:34.144Z,18.10
2023-04-16T19:26:01.602Z,21.20
2023-04-16T19:28:28.778Z,22.80
2023-04-16T19:30:56.152Z,18.10
2023-04-16T19:33:23.098Z,22.00
2023-04-16T19:35:49.904Z,24.80
2023-04-16T19:38:16.714Z,25.50
2023-04-16T19:40:46.658Z,20.80
2023-04-16T19:43:13.951Z,26.40
2023-04-16T19:45:53.411Z,28.10
2023-04-16T19:48:21.509Z,31.90
2023-04-16T19:50:48.763Z,31.80
2023-04-16T19:53:17.222Z,27.70
2023-04-16T19:55:43.977Z,30.70
2023-04-16T19:58:10.835Z,34.80
2023-04-16T20:00:38.915Z,41.30
2023-04-16T20:03:06.331Z,38.40
2023-04-16T20:05:33.192Z,35.00
2023-04-16T20:08:00.393Z,31.30
2023-04-16T20:10:27.788Z,30.40
2023-04-16T20:12:54.492Z,36.80
2023-04-16T20:15:21.858Z,40.90
2023-04-16T20:17:48.609Z,35.70
2023-04-16T20:20:16.454Z,41.10
2023-04-16T20:22:43.777Z,38.30
2023-04-16T20:25:10.626Z,35.90
2023-04-16T20:27:37.503Z,33.60
2023-04-16T20:30:06.425Z,27.50
2023-04-16T20:32:33.278Z,29.70
2023-04-16T20:35:00.435Z,25.90
2023-04-16T20:37:29.164Z,28.50
2023-04-16T20:39:56.387Z,33.70
2023-04-16T20:42:26.394Z,34.80
2023-04-16T20:44:56.496Z,29.30
2023-04-16T20:47:23.860Z,30.30
2023-04-16T20:49:52.708Z,31.90
2023-04-16T20:52:19.758Z,28.60
2023-04-16T20:54:47.171Z,31.50
2023-04-16T20:57:14.160Z,29.30
2023-04-16T20:59:40.986Z,32.50
2023-04-16T21:02:07.989Z,39.50
2023-04-16T21:04:35.559Z,37.20
2023-04-16T21:07:04.354Z,43.30
2023-04-16T21:09:31.585Z,41.00
2023-04-16T21:11:58.588Z,37.10
2023-04-16T21:14:25.375Z,40.80
2023-04-16T21:16:52.150Z,47.50
2023-04-16T21:19:19.003Z,47.80
2023-04-16T21:21:45.999Z,47.70
2023-04-16T21:24:12.707Z,48.40
2023-04-16T21:26:39.417Z,50.80
2023-04-16T21:29:06.188Z,48.20
2023-04-16T21:31:32.935Z,53.60
2023-04-16T21:34:00.077Z,53.60
2023-04-16T21:36:27.772Z,55.30
2023-04-16T21:38:55.039Z,57.30
2023-04-16T21:41:21.784Z,54.10
2023-04-16T21:43:48.759Z,50.20
2023-04-16T21:46:15.508Z,48.90
2023-04-16T21:48:42.266Z,54.00
2023-04-16T21:51:10.101Z,56.80
2023-04-16T21:53:38.701Z,51.40
2023-04-16T21:56:06.480Z,50.40
2023-04-16T21:58:33.294Z,44.00
2023-04-16T22:01:00.031Z,49.10
2023-04-16T22:03:28.296Z,44.00
2023-04-16T22:06:00.930Z,40.60
2023-04-16T22:08:30.688Z,42.10
2023-04-16T22:11:00.207Z,43.50
2023-04-16T22:13:27.905Z,40.00
2023-04-16T22:15:55.527Z,40.60
2023-04-16T22:18:25.521Z,41.50
2023-04-16T22:20:54.980Z,40.00
2023-04-16T22:23:23.468Z,40.20
2023-04-16T22:25:50.975Z,40.40
2023-04-16T22:28:17.959Z,40.90
2023-04-16T22:30:44.689Z,38.90
2023-04-16T22:33:11.511Z,41.20
2023-04-16T22:35:38.301Z,42.10
2023-04-16T22:38:05.561Z,39.30
2023-04-16T22:40:32.303Z,41.90
2023-04-16T22:42:59.153Z,39.70
2023-04-16T22:45:27.264Z,39.20
2023-04-16T22:47:54.137Z,38.60
2023-04-16T22:50:21.072Z,41.60
2023-04-16T22:52:47.800Z,40.00
2023-04-16T22:55:14.614Z,35.30
2023-04-16T22:57:42.060Z,34.20
2023-04-16T23:00:15.665Z,35.90
2023-04-16T23:02:43.253Z,37.80
2023-04-16T23:05:10.920Z,41.80
2023-04-16T23:07:37.667Z,39.70
2023-04-16T23:10:04.846Z,36.20
2023-04-16T23:12:31.572Z,36.60
2023-04-16T23:14:58.460Z,36.60
2023-04-16T23:17:25.265Z,32.80
2023-04-16T23:19:52.177Z,32.90
2023-04-16T23:22:18.926Z,35.30
2023-04-16T23:24:45.802Z,32.80
2023-04-16T23:27:12.663Z,33.30
2023-04-16T23:29:39.477Z,33.30
2023-04-16T23:32:06.247Z,34.50
2023-04-16T23:34:33.033Z,37.10
2023-04-16T23:36:59.804Z,35.70
2023-04-16T23:39:27.249Z,37.30
2023-04-16T23:41:54.016Z,38.20
2023-04-16T23:44:20.727Z,35.90
2023-04-16T23:46:47.708Z,32.70
2023-04-16T23:49:14.487Z,36.70
2023-04-16T23:51:41.298Z,36.50
2023-04-16T23:54:08.044Z,37.80
2023-04-16T23:56:34.740Z,38.30
2023-04-16T23:59:01.672Z,33.10
